createdAt,value
2023-03-06T00:00:53.062Z,83.32
2023-03-06T00:03:20.082Z,83.33
2023-03-06T00:05:46.973Z,83.36
2023-03-06T00:08:13.590Z,83.37
2023-03-06T00:10:40.470Z,83.34
2023-03-06T00:13:15.995Z,83.85
2023-03-06T00:15:42.657Z,83.88
2023-03-06T00:18:09.530Z,83.45
2023-03-06T00:20:37.201Z,83.58
2023-03-06T00:23:04.017Z,84.20
2023-03-06T00:25:30.693Z,83.71
2023-03-06T00:27:57.437Z,84.36
2023-03-06T00:30:25.041Z,84.26
2023-03-06T00:32:53.942Z,84.32
2023-03-06T00:35:20.783Z,83.77
2023-03-06T00:37:47.419Z,84.11
2023-03-06T00:40:16.970Z,84.29
2023-03-06T00:42:46.162Z,83.74
2023-03-06T00:45:13.415Z,83.79
2023-03-06T00:47:40.687Z,84.34
2023-03-06T00:50:07.944Z,84.06
2023-03-06T00:52:34.853Z,84.32
2023-03-06T00:55:01.425Z,84.60
2023-03-06T00:57:28.110Z,84.16
2023-03-06T00:59:54.687Z,84.55
2023-03-06T01:02:21.466Z,84.76
2023-03-06T01:04:48.031Z,84.86
2023-03-06T01:07:22.083Z,84.93
2023-03-06T01:09:48.701Z,85.54
2023-03-06T01:12:15.441Z,84.84
2023-03-06T01:14:42.045Z,85.95
2023-03-06T01:17:08.564Z,85.75
2023-03-06T01:19:35.090Z,85.53
2023-03-06T01:22:01.571Z,86.18
2023-03-06T01:24:28.571Z,86.20
2023-03-06T01:26:57.446Z,86.75
2023-03-06T01:29:27.598Z,86.16
2023-03-06T01:31:54.201Z,86.65
2023-03-06T01:34:20.824Z,86.23
2023-03-06T01:36:47.343Z,86.41
2023-03-06T01:39:13.934Z,86.64
2023-03-06T01:41:40.476Z,86.62
2023-03-06T01:44:07.004Z,86.91
2023-03-06T01:49:08.376Z,86.97
2023-03-06T01:51:57.772Z,86.51
2023-03-06T01:54:27.935Z,86.65
2023-03-06T01:56:58.025Z,85.93
2023-03-06T01:59:27.896Z,86.04
2023-03-06T02:01:54.912Z,86.54
2023-03-06T02:04:21.513Z,86.07
2023-03-06T02:06:48.763Z,85.95
2023-03-06T02:09:16.494Z,86.13
2023-03-06T02:11:44.268Z,86.03
2023-03-06T02:14:13.384Z,85.72
2023-03-06T02:16:41.792Z,85.86
2023-03-06T02:19:18.758Z,86.37
2023-03-06T02:21:47.683Z,86.41
2023-03-06T02:24:28.157Z,86.39
2023-03-06T02:26:54.950Z,85.93
2023-03-06T02:29:24.566Z,86.84
2023-03-06T02:31:51.169Z,86.51
2023-03-06T02:34:20.817Z,86.28
2023-03-06T02:36:53.169Z,86.27
2023-03-06T02:39:23.392Z,85.82
2023-03-06T02:41:49.905Z,86.88
2023-03-06T02:44:16.454Z,87.19
2023-03-06T02:46:43.012Z,87.14
2023-03-06T02:49:09.589Z,87.03
2023-03-06T02:51:36.092Z,86.84
2023-03-06T02:54:02.698Z,86.55
2023-03-06T02:56:29.354Z,86.94
2023-03-06T02:58:55.861Z,86.89
2023-03-06T03:01:23.011Z,87.49
2023-03-06T03:03:49.580Z,87.73
2023-03-06T03:06:16.285Z,87.37
2023-03-06T03:08:42.919Z,86.66
2023-03-06T03:11:09.481Z,86.36
2023-03-06T03:13:37.551Z,86.09
2023-03-06T03:16:06.817Z,85.71
2023-03-06T03:18:34.064Z,86.15
2023-03-06T03:21:00.645Z,85.97
2023-03-06T03:23:27.419Z,86.10
2023-03-06T03:25:54.399Z,85.39
2023-03-06T03:28:21.002Z,86.13
2023-03-06T03:30:47.583Z,85.88
2023-03-06T03:33:14.200Z,85.84
2023-03-06T03:35:40.733Z,85.88
2023-03-06T03:38:07.256Z,85.56
2023-03-06T03:40:33.786Z,85.33
2023-03-06T03:43:00.321Z,85.01
2023-03-06T03:45:26.954Z,85.47
2023-03-06T03:47:53.526Z,85.44
2023-03-06T03:50:20.212Z,85.71
2023-03-06T03:52:46.778Z,85.48
2023-03-06T03:55:13.307Z,86.31
2023-03-06T03:57:39.888Z,85.63
2023-03-06T04:00:08.128Z,85.75
2023-03-06T04:02:34.657Z,85.79
2023-03-06T04:05:01.259Z,85.61
2023-03-06T04:07:27.875Z,85.57
2023-03-06T04:09:54.462Z,86.01
2023-03-06T04:12:21.031Z,85.56
2023-03-06T04:14:47.607Z,85.28
2023-03-06T04:17:14.135Z,85.13
2023-03-06T04:19:40.672Z,85.31
2023-03-06T04:22:07.282Z,85.37
2023-03-06T04:24:33.814Z,85.80
2023-03-06T04:27:00.305Z,85.92
2023-03-06T04:29:26.842Z,85.75
2023-03-06T04:31:53.343Z,85.77
2023-03-06T04:34:19.889Z,85.42
2023-03-06T04:36:47.593Z,85.27
2023-03-06T04:39:14.554Z,85.50
2023-03-06T04:41:41.777Z,86.21
2023-03-06T04:44:09.040Z,85.74
2023-03-06T04:46:35.697Z,86.01
2023-03-06T04:49:02.217Z,85.14
2023-03-06T04:51:28.885Z,85.82
2023-03-06T04:53:55.395Z,85.70
2023-03-06T04:56:21.927Z,85.74
2023-03-06T04:58:48.644Z,85.95
2023-03-06T05:01:15.334Z,85.76
2023-03-06T05:03:41.925Z,85.71
2023-03-06T05:06:08.508Z,85.62
2023-03-06T05:08:35.156Z,85.56
2023-03-06T05:11:02.391Z,85.41
2023-03-06T05:13:29.048Z,84.85
2023-03-06T05:15:55.584Z,85.27
2023-03-06T05:18:22.243Z,84.59
2023-03-06T05:20:48.874Z,84.41
2023-03-06T05:23:15.540Z,84.58
2023-03-06T05:25:42.253Z,84.56
2023-03-06T05:28:09.135Z,84.59
2023-03-06T05:30:36.447Z,84.74
2023-03-06T05:33:03.038Z,84.46
2023-03-06T05:35:29.708Z,84.53
2023-03-06T05:37:56.517Z,83.96
2023-03-06T05:40:23.098Z,83.50
2023-03-06T05:42:49.646Z,83.19
2023-03-06T05:45:16.320Z,82.95
2023-03-06T05:47:42.878Z,82.76
2023-03-06T05:50:10.648Z,82.64
2023-03-06T05:52:39.522Z,82.14
2023-03-06T05:55:07.436Z,83.46
2023-03-06T05:57:34.037Z,83.15
2023-03-06T06:00:00.614Z,82.23
2023-03-06T06:02:27.210Z,81.37
2023-03-06T06:04:53.763Z,81.47
2023-03-06T06:07:20.287Z,81.22
2023-03-06T06:09:46.852Z,81.43
2023-03-06T06:12:14.209Z,80.29
2023-03-06T06:14:40.725Z,79.87
2023-03-06T06:17:07.438Z,80.84
2023-03-06T06:19:34.006Z,80.69
2023-03-06T06:22:02.620Z,79.99
2023-03-06T06:24:29.738Z,79.66
2023-03-06T06:26:58.091Z,79.71
2023-03-06T06:29:26.182Z,81.01
2023-03-06T06:31:53.326Z,79.81
2023-03-06T06:34:20.396Z,79.83
2023-03-06T06:36:46.927Z,79.79
2023-03-06T06:39:18.446Z,80.29
2023-03-06T06:42:02.313Z,79.47
2023-03-06T06:44:34.661Z,79.25
2023-03-06T06:49:52.761Z,79.93
2023-03-06T06:52:19.700Z,79.53
2023-03-06T06:54:46.522Z,79.74
2023-03-06T06:57:13.783Z,80.00
2023-03-06T06:59:40.663Z,79.56
2023-03-06T07:02:07.242Z,78.37
2023-03-06T07:04:33.907Z,78.28
2023-03-06T07:07:01.185Z,78.32
2023-03-06T07:09:30.019Z,77.76
2023-03-06T07:11:56.864Z,77.08
2023-03-06T07:14:23.416Z,76.57
2023-03-06T07:16:50.102Z,76.81
2023-03-06T07:19:16.779Z,75.80
2023-03-06T07:21:43.303Z,74.58
2023-03-06T07:24:09.881Z,74.54
2023-03-06T07:26:36.629Z,74.17
2023-03-06T07:29:03.904Z,73.65
2023-03-06T07:31:30.645Z,72.78
2023-03-06T07:33:57.298Z,71.15
2023-03-06T07:36:24.232Z,70.42
2023-03-06T07:38:50.780Z,68.81
2023-03-06T07:41:20.432Z,67.45
2023-03-06T07:43:48.496Z,66.54
2023-03-06T07:46:15.048Z,65.09
2023-03-06T07:48:42.140Z,63.92
2023-03-06T07:51:13.935Z,62.50
2023-03-06T07:53:40.581Z,62.29
2023-03-06T07:56:08.963Z,60.86
2023-03-06T07:58:36.827Z,61.82
2023-03-06T08:01:17.807Z,61.37
2023-03-06T08:03:44.470Z,60.84
2023-03-06T08:06:16.241Z,58.48
2023-03-06T08:08:44.421Z,57.10
2023-03-06T08:11:12.694Z,58.97
2023-03-06T08:13:39.824Z,58.24
2023-03-06T08:16:07.173Z,58.21
2023-03-06T08:18:34.233Z,58.76
2023-03-06T08:21:06.078Z,57.12
2023-03-06T08:23:33.312Z,56.37
2023-03-06T08:26:02.468Z,56.26
2023-03-06T08:28:29.223Z,56.83
2023-03-06T08:30:56.834Z,55.72
2023-03-06T08:33:23.921Z,55.30
2023-03-06T08:35:50.950Z,55.34
2023-03-06T08:38:17.496Z,54.60
2023-03-06T08:40:44.061Z,53.23
2023-03-06T08:43:13.079Z,54.28
2023-03-06T08:45:40.747Z,54.57
2023-03-06T08:48:07.352Z,53.82
2023-03-06T08:50:33.890Z,53.16
2023-03-06T08:53:01.702Z,53.67
2023-03-06T08:55:28.303Z,52.91
2023-03-06T08:57:54.901Z,51.70
2023-03-06T09:00:21.588Z,51.43
2023-03-06T09:02:48.217Z,51.88
2023-03-06T09:05:14.729Z,51.03
2023-03-06T09:07:42.444Z,51.53
2023-03-06T09:10:14.253Z,52.13
2023-03-06T09:12:49.771Z,51.52
2023-03-06T09:15:18.351Z,50.96
2023-03-06T09:17:44.939Z,49.64
2023-03-06T09:20:12.249Z,48.27
2023-03-06T09:22:39.148Z,49.42
2023-03-06T09:25:06.504Z,48.85
2023-03-06T09:27:35.402Z,49.02
2023-03-06T09:30:02.292Z,50.12
2023-03-06T09:32:28.978Z,50.80
2023-03-06T09:34:55.595Z,51.98
2023-03-06T09:37:22.218Z,52.14
2023-03-06T09:39:48.760Z,50.33
2023-03-06T09:42:20.828Z,50.16
2023-03-06T09:44:52.291Z,51.43
2023-03-06T09:47:25.031Z,50.13
2023-03-06T09:50:13.390Z,51.53
2023-03-06T09:52:46.226Z,50.81
2023-03-06T09:55:19.596Z,50.16
2023-03-06T09:58:01.361Z,47.90
2023-03-06T10:00:33.509Z,48.46
2023-03-06T10:03:38.853Z,49.04
2023-03-06T10:06:13.349Z,49.18
2023-03-06T10:08:49.110Z,48.98
2023-03-06T10:11:21.938Z,47.07
2023-03-06T10:13:51.496Z,49.48
2023-03-06T10:16:30.706Z,49.11
2023-03-06T10:19:02.428Z,49.30
2023-03-06T10:21:43.983Z,48.25
2023-03-06T10:24:28.527Z,46.64
2023-03-06T10:27:00.617Z,46.59
2023-03-06T10:29:47.646Z,46.45
2023-03-06T10:32:47.602Z,46.70
2023-03-06T10:35:22.029Z,49.40
2023-03-06T10:37:49.786Z,48.01
2023-03-06T10:40:20.592Z,47.41
2023-03-06T10:42:49.522Z,46.44
2023-03-06T10:45:18.798Z,46.75
2023-03-06T10:47:46.134Z,47.32
2023-03-06T10:50:34.737Z,45.74
2023-03-06T10:53:05.052Z,43.92
2023-03-06T10:55:34.335Z,43.74
2023-03-06T10:58:21.990Z,43.85
2023-03-06T11:01:01.654Z,44.65
2023-03-06T11:03:28.705Z,45.44
2023-03-06T11:06:15.937Z,46.48
2023-03-06T11:08:44.469Z,45.28
2023-03-06T11:11:22.415Z,45.66
2023-03-06T11:14:07.622Z,46.06
2023-03-06T11:16:34.520Z,45.54
2023-03-06T11:19:08.512Z,48.58
2023-03-06T11:21:36.692Z,49.39
2023-03-06T11:24:07.206Z,49.30
2023-03-06T11:26:39.532Z,48.97
2023-03-06T11:29:12.271Z,48.25
2023-03-06T11:31:46.155Z,49.67
2023-03-06T11:34:27.355Z,49.45
2023-03-06T11:37:12.234Z,49.36
2023-03-06T11:39:51.433Z,49.67
2023-03-06T11:42:44.490Z,50.01
2023-03-06T11:45:37.199Z,50.70
2023-03-06T11:48:03.704Z,50.92
2023-03-06T11:51:15.177Z,51.29
2023-03-06T11:53:41.930Z,50.27
2023-03-06T11:56:56.053Z,50.69
2023-03-06T11:59:53.544Z,50.30
2023-03-06T12:02:23.240Z,49.41
2023-03-06T12:05:00.845Z,48.91
2023-03-06T12:07:33.355Z,47.38
2023-03-06T12:10:25.254Z,47.69
2023-03-06T12:13:19.016Z,45.78
2023-03-06T12:16:17.987Z,46.22
2023-03-06T12:18:52.836Z,49.53
2023-03-06T12:21:42.688Z,49.21
2023-03-06T12:24:31.687Z,48.87
2023-03-06T12:27:33.703Z,48.35
2023-03-06T12:30:03.714Z,49.29
2023-03-06T12:33:00.722Z,51.13
2023-03-06T12:35:39.615Z,51.88
2023-03-06T12:38:30.961Z,50.67
2023-03-06T12:41:24.414Z,50.76
2023-03-06T12:44:12.217Z,51.01
2023-03-06T12:46:43.634Z,50.79
2023-03-06T12:49:23.070Z,50.24
2023-03-06T12:51:57.604Z,50.52
2023-03-06T12:54:27.264Z,50.25
2023-03-06T12:56:54.493Z,48.69
2023-03-06T12:59:53.646Z,50.14
2023-03-06T13:02:36.565Z,50.51
2023-03-06T13:05:14.997Z,50.00
2023-03-06T13:07:53.433Z,50.21
2023-03-06T13:10:33.806Z,50.40
2023-03-06T13:13:08.779Z,48.44
2023-03-06T13:15:38.655Z,47.96
2023-03-06T13:18:23.444Z,47.68
2023-03-06T13:20:56.405Z,47.34
2023-03-06T13:23:29.130Z,45.82
2023-03-06T13:26:09.742Z,45.87
2023-03-06T13:28:50.100Z,45.91
2023-03-06T13:31:28.123Z,45.11
2023-03-06T13:34:39.576Z,45.45
2023-03-06T13:37:23.398Z,45.35
2023-03-06T13:39:56.752Z,44.71
2023-03-06T13:42:26.099Z,44.26
2023-03-06T13:44:53.082Z,44.81
2023-03-06T13:47:21.359Z,44.51
2023-03-06T13:49:48.295Z,44.89
2023-03-06T13:52:29.923Z,45.83
2023-03-06T13:55:06.094Z,46.13
2023-03-06T13:57:54.814Z,45.41
2023-03-06T14:00:32.122Z,44.86
2023-03-06T14:03:35.014Z,51.96
2023-03-06T14:06:01.684Z,54.03
2023-03-06T14:08:30.663Z,54.10
2023-03-06T14:11:18.232Z,54.06
2023-03-06T14:13:54.122Z,53.25
2023-03-06T14:16:29.042Z,54.29
2023-03-06T14:18:57.397Z,55.02
2023-03-06T14:21:31.193Z,54.88
2023-03-06T14:24:03.316Z,54.51
2023-03-06T14:26:40.840Z,54.65
2023-03-06T14:29:19.989Z,54.53
2023-03-06T14:31:49.877Z,56.01
2023-03-06T14:34:29.627Z,55.93
2023-03-06T14:36:58.879Z,57.08
2023-03-06T14:39:25.355Z,56.60
2023-03-06T14:41:51.938Z,56.81
2023-03-06T14:44:23.552Z,56.76
2023-03-06T14:46:57.647Z,56.21
2023-03-06T14:49:25.575Z,57.44
2023-03-06T14:51:56.605Z,57.16
2023-03-06T14:54:29.403Z,56.57
2023-03-06T14:57:13.603Z,57.68
2023-03-06T14:59:55.151Z,57.65
2023-03-06T15:02:24.033Z,56.25
2023-03-06T15:05:24.749Z,56.19
2023-03-06T15:07:53.023Z,61.66
2023-03-06T15:10:30.718Z,65.34
2023-03-06T15:13:18.054Z,68.31
2023-03-06T15:16:13.200Z,70.80
2023-03-06T15:18:53.798Z,71.98
2023-03-06T15:21:22.042Z,71.96
2023-03-06T15:23:50.490Z,73.44
2023-03-06T15:26:31.800Z,72.29
2023-03-06T15:29:22.987Z,73.43
2023-03-06T15:31:49.812Z,75.16
2023-03-06T15:34:23.662Z,74.79
2023-03-06T15:36:55.307Z,75.34
2023-03-06T15:39:40.343Z,75.25
2023-03-06T15:42:20.648Z,77.40
2023-03-06T15:44:54.990Z,77.57
2023-03-06T15:47:22.433Z,77.78
2023-03-06T15:49:52.056Z,77.86
2023-03-06T15:52:22.220Z,75.75
2023-03-06T15:54:49.012Z,75.35
2023-03-06T15:57:24.019Z,75.97
2023-03-06T15:59:51.898Z,76.87
2023-03-06T16:02:20.263Z,77.77
2023-03-06T16:04:47.077Z,75.34
2023-03-06T16:07:14.409Z,75.04
2023-03-06T16:09:41.994Z,73.65
2023-03-06T16:12:17.569Z,73.43
2023-03-06T16:14:49.171Z,73.19
2023-03-06T16:17:16.549Z,73.59
2023-03-06T16:19:43.665Z,75.57
2023-03-06T16:22:10.680Z,75.13
2023-03-06T16:24:37.609Z,76.45
2023-03-06T16:27:04.452Z,77.37
2023-03-06T16:29:31.210Z,78.98
2023-03-06T16:34:39.262Z,79.41
2023-03-06T16:37:06.279Z,79.64
2023-03-06T16:39:32.834Z,80.00
2023-03-06T16:41:59.399Z,79.82
2023-03-06T16:44:26.069Z,78.93
2023-03-06T16:46:53.968Z,78.58
2023-03-06T16:49:24.557Z,77.73
2023-03-06T16:51:53.154Z,77.41
2023-03-06T16:54:20.243Z,77.44
2023-03-06T16:56:46.960Z,75.71
2023-03-06T16:59:13.582Z,75.70
2023-03-06T17:02:21.749Z,77.83
2023-03-06T17:04:48.278Z,76.32
2023-03-06T17:07:16.191Z,76.57
2023-03-06T17:09:43.256Z,80.51
2023-03-06T17:12:09.969Z,81.26
2023-03-06T17:14:38.361Z,81.16
2023-03-06T17:17:07.059Z,79.18
2023-03-06T17:19:33.674Z,80.23
2023-03-06T17:22:00.150Z,79.03
2023-03-06T17:24:27.028Z,78.68
2023-03-06T17:26:53.554Z,80.19
2023-03-06T17:29:20.286Z,79.92
2023-03-06T17:31:47.288Z,82.60
2023-03-06T17:34:13.791Z,87.24
2023-03-06T17:36:42.374Z,90.34
2023-03-06T17:39:08.984Z,91.46
2023-03-06T17:41:35.555Z,91.48
2023-03-06T17:44:02.165Z,90.71
2023-03-06T17:46:28.868Z,92.02
2023-03-06T17:48:55.450Z,94.45
2023-03-06T17:51:22.090Z,94.34
2023-03-06T17:53:49.308Z,94.39
2023-03-06T17:56:16.009Z,93.73
2023-03-06T17:58:42.546Z,95.72
2023-03-06T18:01:17.522Z,95.90
2023-03-06T18:03:46.579Z,95.03
2023-03-06T18:06:15.903Z,94.45
2023-03-06T18:08:42.864Z,94.28
2023-03-06T18:11:10.941Z,93.50
2023-03-06T18:13:40.258Z,92.70
2023-03-06T18:16:08.162Z,92.38
2023-03-06T18:18:34.939Z,91.77
2023-03-06T18:21:06.592Z,91.58
2023-03-06T18:23:33.246Z,90.93
2023-03-06T18:26:14.788Z,92.12
2023-03-06T18:28:44.512Z,90.66
2023-03-06T18:31:21.936Z,89.46
2023-03-06T18:33:49.389Z,88.96
2023-03-06T18:36:16.844Z,89.88
2023-03-06T18:38:45.500Z,89.22
2023-03-06T18:41:13.171Z,91.09
2023-03-06T18:43:40.981Z,91.30
2023-03-06T18:46:08.003Z,91.98
2023-03-06T18:48:35.168Z,92.31
2023-03-06T18:51:07.052Z,92.58
2023-03-06T18:53:33.648Z,92.89
2023-03-06T18:56:00.390Z,92.79
2023-03-06T18:58:27.210Z,93.76
2023-03-06T19:00:53.803Z,94.33
2023-03-06T19:03:22.786Z,93.94
2023-03-06T19:05:49.788Z,93.86
2023-03-06T19:08:17.576Z,93.45
2023-03-06T19:10:46.282Z,94.10
2023-03-06T19:13:13.451Z,94.35
2023-03-06T19:15:45.624Z,94.83
2023-03-06T19:18:18.029Z,95.27
2023-03-06T19:20:45.300Z,95.01
2023-03-06T19:23:11.895Z,95.68
2023-03-06T19:25:38.536Z,96.06
2023-03-06T19:28:05.298Z,96.09
2023-03-06T19:30:31.852Z,96.30
2023-03-06T19:32:58.632Z,95.51
2023-03-06T19:35:26.657Z,97.28
2023-03-06T19:37:54.394Z,98.17
2023-03-06T19:40:21.137Z,98.30
2023-03-06T19:42:47.722Z,97.21
2023-03-06T19:45:14.435Z,96.52
2023-03-06T19:47:41.005Z,95.57
2023-03-06T19:50:08.306Z,95.68
2023-03-06T19:52:36.692Z,94.45
2023-03-06T19:55:03.629Z,93.09
2023-03-06T19:57:30.165Z,94.66
2023-03-06T19:59:58.573Z,97.59
2023-03-06T20:02:27.205Z,98.14
2023-03-06T20:04:54.582Z,96.60
2023-03-06T20:07:21.841Z,96.57
2023-03-06T20:09:50.150Z,97.11
2023-03-06T20:12:16.798Z,96.64
2023-03-06T20:14:43.339Z,96.02
2023-03-06T20:17:09.897Z,96.45
2023-03-06T20:19:36.639Z,95.50
2023-03-06T20:22:03.431Z,94.21
2023-03-06T20:24:30.117Z,94.56
2023-03-06T20:26:58.357Z,94.92
2023-03-06T20:29:28.473Z,95.27
2023-03-06T20:31:56.454Z,95.52
2023-03-06T20:34:23.686Z,95.32
2023-03-06T20:36:50.413Z,97.39
2023-03-06T20:39:19.606Z,96.70
2023-03-06T20:41:46.804Z,96.16
2023-03-06T20:44:19.754Z,95.67
2023-03-06T20:46:46.658Z,95.60
2023-03-06T20:49:13.426Z,96.42
2023-03-06T20:51:40.687Z,95.17
2023-03-06T20:54:09.322Z,95.34
2023-03-06T20:56:37.015Z,95.37
2023-03-06T20:59:03.564Z,95.35
2023-03-06T21:01:35.996Z,95.21
2023-03-06T21:04:06.608Z,95.13
2023-03-06T21:06:33.302Z,95.09
2023-03-06T21:09:00.890Z,94.80
2023-03-06T21:11:27.868Z,94.07
2023-03-06T21:13:54.463Z,93.99
2023-03-06T21:16:22.463Z,94.37
2023-03-06T21:18:49.074Z,97.16
2023-03-06T21:21:21.715Z,97.42
2023-03-06T21:23:48.948Z,95.23
2023-03-06T21:26:22.177Z,95.65
2023-03-06T21:28:49.327Z,95.46
2023-03-06T21:31:18.140Z,93.52
2023-03-06T21:33:45.661Z,92.91
2023-03-06T21:36:12.314Z,91.94
2023-03-06T21:38:39.127Z,90.33
2023-03-06T21:41:14.177Z,90.02
2023-03-06T21:43:41.021Z,92.08
2023-03-06T21:46:08.015Z,90.90
2023-03-06T21:48:34.699Z,90.42
2023-03-06T21:51:27.403Z,89.34
2023-03-06T21:53:54.894Z,89.51
2023-03-06T21:56:23.815Z,87.99
2023-03-06T21:58:50.441Z,87.22
2023-03-06T22:01:20.333Z,87.04
2023-03-06T22:03:46.905Z,87.83
2023-03-06T22:06:15.846Z,87.13
2023-03-06T22:08:42.918Z,86.51
2023-03-06T22:11:12.269Z,87.12
2023-03-06T22:13:38.982Z,87.07
2023-03-06T22:16:05.980Z,87.71
2023-03-06T22:18:32.895Z,88.85
2023-03-06T22:20:59.541Z,88.48
2023-03-06T22:23:26.339Z,87.73
2023-03-06T22:25:52.837Z,87.64
2023-03-06T22:28:19.422Z,87.45
2023-03-06T22:30:46.183Z,89.43
2023-03-06T22:33:12.979Z,89.95
2023-03-06T22:35:39.574Z,89.56
2023-03-06T22:38:06.112Z,88.59
2023-03-06T22:40:33.264Z,88.97
2023-03-06T22:42:59.854Z,87.84
2023-03-06T22:45:27.687Z,87.38
2023-03-06T22:48:02.352Z,88.64
2023-03-06T22:50:35.767Z,89.94
2023-03-06T22:53:02.310Z,89.69
2023-03-06T22:55:28.865Z,89.92
2023-03-06T22:57:55.442Z,90.45
2023-03-06T23:00:22.008Z,89.90
2023-03-06T23:02:48.516Z,89.91
2023-03-06T23:05:15.135Z,88.89
2023-03-06T23:07:41.619Z,87.39
2023-03-06T23:10:08.928Z,87.74
2023-03-06T23:12:35.741Z,87.41
2023-03-06T23:15:02.373Z,86.66
2023-03-06T23:17:28.964Z,85.97
2023-03-06T23:19:55.512Z,86.51
2023-03-06T23:22:22.020Z,86.60
2023-03-06T23:24:48.553Z,86.93
2023-03-06T23:27:15.662Z,87.01
2023-03-06T23:29:42.243Z,86.68
2023-03-06T23:32:08.850Z,85.95
2023-03-06T23:34:36.450Z,86.21
2023-03-06T23:37:03.126Z,86.28
2023-03-06T23:39:29.704Z,85.28
2023-03-06T23:41:56.250Z,86.38
2023-03-06T23:44:22.744Z,87.55
2023-03-06T23:46:49.312Z,86.65
2023-03-06T23:49:15.877Z,86.76
2023-03-06T23:51:42.441Z,86.45
2023-03-06T23:54:09.988Z,85.09
2023-03-06T23:56:36.529Z,84.92
2023-03-06T23:59:03.054Z,85.98
